sensor_id;sensor_type;location;lat;lon;timestamp;pressure;altitude;pressure_sealevel;temperature;humidity
64792;BME280;51226;47.504;19.074;2023-04-02T00:04:34;99267.78;;;11.39;60.95
64792;BME280;51226;47.504;19.074;2023-04-02T00:07:39;99258.25;;;11.41;60.94
64792;BME280;51226;47.504;19.074;2023-04-02T00:13:50;99264.97;;;11.25;61.35
64792;BME280;51226;47.504;19.074;2023-04-02T00:16:55;99274.28;;;11.12;61.95
64792;BME280;51226;47.504;19.074;2023-04-02T00:20:05;99265.44;;;11.04;62.36
64792;BME280;51226;47.504;19.074;2023-04-02T00:23:11;99262.84;;;11.04;62.62
64792;BME280;51226;47.504;19.074;2023-04-02T00:26:35;99270.75;;;11.08;62.40
64792;BME280;51226;47.504;19.074;2023-04-02T00:29:54;99263.66;;;11.00;62.88
64792;BME280;51226;47.504;19.074;2023-04-02T00:32:57;99261.06;;;11.01;62.96
64792;BME280;51226;47.504;19.074;2023-04-02T00:36:05;99264.59;;;11.05;62.97
64792;BME280;51226;47.504;19.074;2023-04-02T00:39:17;99260.22;;;11.04;63.29
64792;BME280;51226;47.504;19.074;2023-04-02T00:42:21;99269.87;;;11.08;63.33
64792;BME280;51226;47.504;19.074;2023-04-02T00:45:31;99267.34;;;11.11;63.51
64792;BME280;51226;47.504;19.074;2023-04-02T00:48:55;99265.75;;;11.22;62.64
64792;BME280;51226;47.504;19.074;2023-04-02T00:52:10;99276.16;;;11.19;62.86
64792;BME280;51226;47.504;19.074;2023-04-02T01:01:36;99273.53;;;11.19;63.34
64792;BME280;51226;47.504;19.074;2023-04-02T01:05:02;99272.62;;;11.17;63.07
64792;BME280;51226;47.504;19.074;2023-04-02T01:08:22;99275.38;;;11.23;62.68
64792;BME280;51226;47.504;19.074;2023-04-02T01:11:53;99269.34;;;11.27;62.46
64792;BME280;51226;47.504;19.074;2023-04-02T01:15:18;99271.09;;;11.28;62.65
64792;BME280;51226;47.504;19.074;2023-04-02T01:18:48;99275.50;;;11.31;62.25
64792;BME280;51226;47.504;19.074;2023-04-02T01:25:03;99271.19;;;11.33;62.13
64792;BME280;51226;47.504;19.074;2023-04-02T01:28:27;99272.97;;;11.37;61.77
64792;BME280;51226;47.504;19.074;2023-04-02T01:31:34;99275.50;;;11.32;62.33
64792;BME280;51226;47.504;19.074;2023-04-02T01:34:38;99271.09;;;11.28;62.41
64792;BME280;51226;47.504;19.074;2023-04-02T01:44:13;99279.00;;;11.31;61.93
64792;BME280;51226;47.504;19.074;2023-04-02T01:47:23;99276.41;;;11.33;62.06
64792;BME280;51226;47.504;19.074;2023-04-02T01:50:35;99278.94;;;11.28;62.41
64792;BME280;51226;47.504;19.074;2023-04-02T01:53:40;99280.72;;;11.32;61.89
64792;BME280;51226;47.504;19.074;2023-04-02T01:56:43;99280.09;;;11.44;61.36
64792;BME280;51226;47.504;19.074;2023-04-02T01:59:47;99289.75;;;11.52;61.11
64792;BME280;51226;47.504;19.074;2023-04-02T02:02:50;99287.81;;;11.38;61.47
64792;BME280;51226;47.504;19.074;2023-04-02T02:05:55;99292.84;;;11.29;61.98
64792;BME280;51226;47.504;19.074;2023-04-02T02:09:01;99289.31;;;11.25;62.37
64792;BME280;51226;47.504;19.074;2023-04-02T02:12:06;99290.13;;;11.21;62.71
64792;BME280;51226;47.504;19.074;2023-04-02T02:15:15;99289.28;;;11.24;62.70
64792;BME280;51226;47.504;19.074;2023-04-02T02:18:20;99292.78;;;11.24;62.68
64792;BME280;51226;47.504;19.074;2023-04-02T02:21:47;99296.38;;;11.29;62.58
64792;BME280;51226;47.504;19.074;2023-04-02T02:24:56;99296.44;;;11.36;62.32
64792;BME280;51226;47.504;19.074;2023-04-02T02:28:16;99302.47;;;11.31;62.54
64792;BME280;51226;47.504;19.074;2023-04-02T02:31:24;99293.66;;;11.25;62.90
64792;BME280;51226;47.504;19.074;2023-04-02T02:34:37;99308.47;;;11.27;62.86
64792;BME280;51226;47.504;19.074;2023-04-02T02:37:46;99296.22;;;11.22;63.25
64792;BME280;51226;47.504;19.074;2023-04-02T02:40:52;99297.19;;;11.28;62.76
64792;BME280;51226;47.504;19.074;2023-04-02T02:47:11;99305.84;;;11.24;63.47
64792;BME280;51226;47.504;19.074;2023-04-02T02:50:21;99311.06;;;11.26;63.58
64792;BME280;51226;47.504;19.074;2023-04-02T02:53:25;99303.22;;;11.26;63.25
64792;BME280;51226;47.504;19.074;2023-04-02T02:56:30;99300.63;;;11.24;63.34
64792;BME280;51226;47.504;19.074;2023-04-02T02:59:36;99305.84;;;11.24;63.44
64792;BME280;51226;47.504;19.074;2023-04-02T03:02:41;99293.66;;;11.25;63.40
64792;BME280;51226;47.504;19.074;2023-04-02T03:05:50;99295.44;;;11.27;63.31
64792;BME280;51226;47.504;19.074;2023-04-02T03:09:03;99298.81;;;11.22;63.84
64792;BME280;51226;47.504;19.074;2023-04-02T03:15:31;99306.81;;;11.29;62.81
64792;BME280;51226;47.504;19.074;2023-04-02T03:21:48;99310.25;;;11.28;62.88
64792;BME280;51226;47.504;19.074;2023-04-02T03:25:01;99296.06;;;11.14;63.51
64792;BME280;51226;47.504;19.074;2023-04-02T03:28:15;99314.25;;;11.08;64.24
64792;BME280;51226;47.504;19.074;2023-04-02T03:34:56;99302.94;;;11.09;64.23
64792;BME280;51226;47.504;19.074;2023-04-02T03:38:09;99308.25;;;11.13;63.98
64792;BME280;51226;47.504;19.074;2023-04-02T03:41:21;99307.41;;;11.15;64.05
64792;BME280;51226;47.504;19.074;2023-04-02T03:48:03;99309.84;;;11.05;64.18
64792;BME280;51226;47.504;19.074;2023-04-02T03:54:23;99308.13;;;11.07;63.80
64792;BME280;51226;47.504;19.074;2023-04-02T03:57:35;99313.22;;;11.00;64.02
64792;BME280;51226;47.504;19.074;2023-04-02T04:04:13;99326.34;;;11.06;63.72
64792;BME280;51226;47.504;19.074;2023-04-02T04:07:27;99327.09;;;10.99;63.94
64792;BME280;51226;47.504;19.074;2023-04-02T04:10:31;99320.03;;;10.93;64.31
64792;BME280;51226;47.504;19.074;2023-04-02T04:13:48;99329.47;;;10.86;64.70
64792;BME280;51226;47.504;19.074;2023-04-02T04:20:04;99335.59;;;10.88;64.75
64792;BME280;51226;47.504;19.074;2023-04-02T04:23:18;99336.50;;;10.90;64.78
64792;BME280;51226;47.504;19.074;2023-04-02T04:26:32;99335.63;;;10.90;64.53
64792;BME280;51226;47.504;19.074;2023-04-02T04:29:58;99345.22;;;10.91;64.48
64792;BME280;51226;47.504;19.074;2023-04-02T04:33:29;99340.75;;;10.85;65.50
64792;BME280;51226;47.504;19.074;2023-04-02T04:36:42;99348.72;;;10.91;65.19
64792;BME280;51226;47.504;19.074;2023-04-02T04:39:54;99352.13;;;10.89;65.08
64792;BME280;51226;47.504;19.074;2023-04-02T04:43:03;99355.66;;;10.92;65.43
64792;BME280;51226;47.504;19.074;2023-04-02T04:46:17;99355.81;;;10.99;64.77
64792;BME280;51226;47.504;19.074;2023-04-02T04:52:28;99355.06;;;11.06;64.72
64792;BME280;51226;47.504;19.074;2023-04-02T04:55:37;99355.81;;;10.99;65.17
64792;BME280;51226;47.504;19.074;2023-04-02T04:59:01;99350.59;;;10.99;65.03
64792;BME280;51226;47.504;19.074;2023-04-02T05:02:18;99354.25;;;11.08;64.62
64792;BME280;51226;47.504;19.074;2023-04-02T05:05:32;99349.78;;;11.01;65.37
64792;BME280;51226;47.504;19.074;2023-04-02T05:08:41;99347.22;;;11.06;65.61
64792;BME280;51226;47.504;19.074;2023-04-02T05:15:29;99356.16;;;11.17;64.70
64792;BME280;51226;47.504;19.074;2023-04-02T05:18:38;99364.16;;;11.26;64.13
64792;BME280;51226;47.504;19.074;2023-04-02T05:21:47;99368.50;;;11.27;64.11
64792;BME280;51226;47.504;19.074;2023-04-02T05:25:29;99369.41;;;11.28;64.42
64792;BME280;51226;47.504;19.074;2023-04-02T05:28:29;99376.53;;;11.37;64.19
64792;BME280;51226;47.504;19.074;2023-04-02T05:31:41;99384.37;;;11.37;64.71
64792;BME280;51226;47.504;19.074;2023-04-02T05:34:49;99369.03;;;11.55;63.94
64792;BME280;51226;47.504;19.074;2023-04-02T05:37:54;99376.22;;;11.68;63.26
64792;BME280;51226;47.504;19.074;2023-04-02T05:41:13;99375.44;;;11.74;63.42
64792;BME280;51226;47.504;19.074;2023-04-02T05:44:26;99375.78;;;11.94;63.46
64792;BME280;51226;47.504;19.074;2023-04-02T05:47:31;99384.72;;;12.07;62.70
64792;BME280;51226;47.504;19.074;2023-04-02T05:50:40;99386.72;;;12.23;61.69
64792;BME280;51226;47.504;19.074;2023-04-02T05:53:50;99402.66;;;12.40;60.83
64792;BME280;51226;47.504;19.074;2023-04-02T05:57:01;99398.50;;;12.55;60.51
64792;BME280;51226;47.504;19.074;2023-04-02T06:00:15;99396.94;;;12.69;60.12
64792;BME280;51226;47.504;19.074;2023-04-02T06:03:23;99397.94;;;12.79;60.27
64792;BME280;51226;47.504;19.074;2023-04-02T06:09:49;99398.13;;;12.94;59.40
64792;BME280;51226;47.504;19.074;2023-04-02T06:13:07;99406.19;;;13.13;58.60
64792;BME280;51226;47.504;19.074;2023-04-02T06:16:14;99399.56;;;13.38;57.72
64792;BME280;51226;47.504;19.074;2023-04-02T06:19:24;99398.03;;;13.62;58.35
64792;BME280;51226;47.504;19.074;2023-04-02T06:22:35;99393.81;;;13.78;57.02
64792;BME280;51226;47.504;19.074;2023-04-02T06:25:58;99400.06;;;13.92;56.22
64792;BME280;51226;47.504;19.074;2023-04-02T06:29:19;99395.88;;;14.17;55.89
64792;BME280;51226;47.504;19.074;2023-04-02T06:32:28;99402.06;;;14.25;55.82
64792;BME280;51226;47.504;19.074;2023-04-02T06:35:33;99412.72;;;14.50;54.81
64792;BME280;51226;47.504;19.074;2023-04-02T06:38:38;99408.53;;;14.74;53.78
64792;BME280;51226;47.504;19.074;2023-04-02T06:41:44;99409.44;;;14.80;53.45
64792;BME280;51226;47.504;19.074;2023-04-02T06:44:51;99406.91;;;15.07;54.16
64792;BME280;51226;47.504;19.074;2023-04-02T06:47:58;99411.41;;;15.45;51.58
64792;BME280;51226;47.504;19.074;2023-04-02T06:51:13;99414.13;;;15.76;50.95
64792;BME280;51226;47.504;19.074;2023-04-02T06:54:20;99421.16;;;15.83;49.95
64792;BME280;51226;47.504;19.074;2023-04-02T06:57:23;99415.00;;;15.76;51.16
64792;BME280;51226;47.504;19.074;2023-04-02T07:00:36;99417.66;;;15.84;50.65
64792;BME280;51226;47.504;19.074;2023-04-02T07:03:40;99424.66;;;16.05;50.09
64792;BME280;51226;47.504;19.074;2023-04-02T07:06:45;99421.16;;;16.10;51.60
64792;BME280;51226;47.504;19.074;2023-04-02T07:09:48;99421.13;;;16.43;49.01
64792;BME280;51226;47.504;19.074;2023-04-02T07:12:51;99430.72;;;16.84;47.99
64792;BME280;51226;47.504;19.074;2023-04-02T07:15:56;99423.44;;;17.49;45.60
64792;BME280;51226;47.504;19.074;2023-04-02T07:18:59;99416.94;;;18.01;44.37
64792;BME280;51226;47.504;19.074;2023-04-02T07:22:04;99416.94;;;18.03;44.21
64792;BME280;51226;47.504;19.074;2023-04-02T07:25:08;99426.56;;;18.07;44.15
64792;BME280;51226;47.504;19.074;2023-04-02T07:28:11;99423.03;;;18.11;43.81
64792;BME280;51226;47.504;19.074;2023-04-02T07:34:18;99447.19;;;17.45;56.08
64792;BME280;51226;47.504;19.074;2023-04-02T07:37:21;99431.63;;;16.52;58.03
64792;BME280;51226;47.504;19.074;2023-04-02T07:40:24;99443.94;;;16.10;58.89
64792;BME280;51226;47.504;19.074;2023-04-02T07:43:27;99450.09;;;16.26;56.02
64792;BME280;51226;47.504;19.074;2023-04-02T07:46:29;99453.56;;;16.62;51.00
64792;BME280;51226;47.504;19.074;2023-04-02T07:49:32;99453.53;;;16.93;52.28
64792;BME280;51226;47.504;19.074;2023-04-02T07:52:42;99459.53;;;17.29;48.18
64792;BME280;51226;47.504;19.074;2023-04-02T07:55:51;99464.69;;;17.56;48.44
64792;BME280;51226;47.504;19.074;2023-04-02T07:58:54;99460.00;;;18.08;45.44
64792;BME280;51226;47.504;19.074;2023-04-02T08:01:57;99461.66;;;18.23;44.57
64792;BME280;51226;47.504;19.074;2023-04-02T08:05:00;99465.63;;;18.68;44.46
64792;BME280;51226;47.504;19.074;2023-04-02T08:08:04;99452.59;;;19.32;41.45
64792;BME280;51226;47.504;19.074;2023-04-02T08:11:08;99454.19;;;19.44;41.36
64792;BME280;51226;47.504;19.074;2023-04-02T08:14:11;99463.62;;;19.65;41.50
64792;BME280;51226;47.504;19.074;2023-04-02T08:17:14;99467.13;;;19.67;41.27
64792;BME280;51226;47.504;19.074;2023-04-02T08:20:17;99478.44;;;19.82;43.05
64792;BME280;51226;47.504;19.074;2023-04-02T08:23:21;99472.34;;;19.73;42.21
64792;BME280;51226;47.504;19.074;2023-04-02T08:26:24;99482.91;;;19.73;41.88
64792;BME280;51226;47.504;19.074;2023-04-02T08:29:27;99481.03;;;19.85;43.56
64792;BME280;51226;47.504;19.074;2023-04-02T08:32:34;99478.88;;;20.11;40.53
64792;BME280;51226;47.504;19.074;2023-04-02T08:35:37;99488.25;;;20.84;40.73
64792;BME280;51226;47.504;19.074;2023-04-02T08:38:41;99477.28;;;21.88;36.78
64792;BME280;51226;47.504;19.074;2023-04-02T08:42:06;99484.84;;;22.05;36.37
64792;BME280;51226;47.504;19.074;2023-04-02T08:48:36;99470.91;;;23.02;34.42
64792;BME280;51226;47.504;19.074;2023-04-02T08:51:44;99468.56;;;24.12;32.78
64792;BME280;51226;47.504;19.074;2023-04-02T08:54:48;99481.31;;;25.32;30.82
64792;BME280;51226;47.504;19.074;2023-04-02T09:05:06;99472.28;;;28.08;28.07
64792;BME280;51226;47.504;19.074;2023-04-02T09:08:18;99481.28;;;28.25;26.20
64792;BME280;51226;47.504;19.074;2023-04-02T09:17:46;99481.91;;;25.64;29.84
64792;BME280;51226;47.504;19.074;2023-04-02T09:20:56;99485.28;;;24.95;31.07
64792;BME280;51226;47.504;19.074;2023-04-02T09:23:59;99486.00;;;24.49;30.98
64792;BME280;51226;47.504;19.074;2023-04-02T09:27:21;99490.06;;;24.05;32.21
64792;BME280;51226;47.504;19.074;2023-04-02T09:34:33;99490.16;;;23.11;33.32
64792;BME280;51226;47.504;19.074;2023-04-02T09:37:36;99508.69;;;22.47;34.86
64792;BME280;51226;47.504;19.074;2023-04-02T09:40:47;99511.34;;;22.08;37.54
64792;BME280;51226;47.504;19.074;2023-04-02T09:47:25;99514.31;;;21.54;36.08
64792;BME280;51226;47.504;19.074;2023-04-02T09:50:30;99522.16;;;21.13;38.89
64792;BME280;51226;47.504;19.074;2023-04-02T09:53:35;99515.84;;;20.72;37.88
64792;BME280;51226;47.504;19.074;2023-04-02T09:56:39;99518.03;;;20.45;40.81
64792;BME280;51226;47.504;19.074;2023-04-02T09:59:43;99512.84;;;20.37;39.35
64792;BME280;51226;47.504;19.074;2023-04-02T10:02:46;99523.84;;;20.69;38.51
64792;BME280;51226;47.504;19.074;2023-04-02T10:06:13;99518.72;;;20.58;39.76
64792;BME280;51226;47.504;19.074;2023-04-02T10:09:30;99516.06;;;20.58;39.07
64792;BME280;51226;47.504;19.074;2023-04-02T10:12:37;99523.75;;;20.75;40.42
64792;BME280;51226;47.504;19.074;2023-04-02T10:16:06;99519.75;;;21.01;40.30
64792;BME280;51226;47.504;19.074;2023-04-02T10:22:29;99516.53;;;20.83;38.78
64792;BME280;51226;47.504;19.074;2023-04-02T10:25:40;99515.78;;;20.77;37.53
64792;BME280;51226;47.504;19.074;2023-04-02T10:32:29;99515.09;;;21.14;36.79
64792;BME280;51226;47.504;19.074;2023-04-02T10:35:42;99520.25;;;21.20;36.40
64792;BME280;51226;47.504;19.074;2023-04-02T10:42:05;99509.50;;;21.71;37.21
64792;BME280;51226;47.504;19.074;2023-04-02T10:45:34;99499.72;;;22.86;34.03
64792;BME280;51226;47.504;19.074;2023-04-02T10:55:24;99498.66;;;24.69;31.97
64792;BME280;51226;47.504;19.074;2023-04-02T10:58:32;99501.16;;;25.73;31.20
64792;BME280;51226;47.504;19.074;2023-04-02T11:01:40;99502.53;;;26.29;28.12
64792;BME280;51226;47.504;19.074;2023-04-02T11:04:45;99499.28;;;26.42;27.64
64792;BME280;51226;47.504;19.074;2023-04-02T11:08:01;99503.03;;;25.93;27.84
64792;BME280;51226;47.504;19.074;2023-04-02T11:11:11;99505.16;;;25.37;31.29
64792;BME280;51226;47.504;19.074;2023-04-02T11:14:27;99500.97;;;24.80;30.84
64792;BME280;51226;47.504;19.074;2023-04-02T11:17:31;99496.09;;;24.66;30.70
64792;BME280;51226;47.504;19.074;2023-04-02T11:21:05;99496.56;;;25.29;30.33
64792;BME280;51226;47.504;19.074;2023-04-02T11:27:33;99484.03;;;27.08;27.22
64792;BME280;51226;47.504;19.074;2023-04-02T11:30:36;99479.22;;;27.56;26.16
64792;BME280;51226;47.504;19.074;2023-04-02T11:33:40;99473.94;;;27.35;26.15
64792;BME280;51226;47.504;19.074;2023-04-02T11:46:38;99476.09;;;25.29;28.94
64792;BME280;51226;47.504;19.074;2023-04-02T11:50:01;99479.47;;;25.35;28.00
64792;BME280;51226;47.504;19.074;2023-04-02T11:56:28;99478.41;;;23.80;30.18
64792;BME280;51226;47.504;19.074;2023-04-02T11:59:46;99480.81;;;23.29;30.90
64792;BME280;51226;47.504;19.074;2023-04-02T12:09:56;99472.12;;;25.16;28.59
64792;BME280;51226;47.504;19.074;2023-04-02T12:13:00;99474.47;;;25.49;28.43
64792;BME280;51226;47.504;19.074;2023-04-02T12:16:04;99464.88;;;25.67;27.98
64792;BME280;51226;47.504;19.074;2023-04-02T12:19:08;99454.69;;;26.00;27.14
64792;BME280;51226;47.504;19.074;2023-04-02T12:22:23;99451.91;;;26.03;27.56
64792;BME280;51226;47.504;19.074;2023-04-02T12:25:30;99454.09;;;25.92;26.58
64792;BME280;51226;47.504;19.074;2023-04-02T12:28:34;99459.19;;;25.76;27.87
64792;BME280;51226;47.504;19.074;2023-04-02T12:31:44;99460.91;;;25.77;26.04
64792;BME280;51226;47.504;19.074;2023-04-02T12:34:48;99443.19;;;25.98;25.68
64792;BME280;51226;47.504;19.074;2023-04-02T12:37:52;99449.47;;;25.28;26.89
64792;BME280;51226;47.504;19.074;2023-04-02T12:40:58;99450.81;;;24.91;27.62
64792;BME280;51226;47.504;19.074;2023-04-02T12:44:06;99445.22;;;24.97;27.97
64792;BME280;51226;47.504;19.074;2023-04-02T12:47:17;99448.47;;;25.05;28.37
64792;BME280;51226;47.504;19.074;2023-04-02T12:50:20;99442.97;;;25.35;28.72
64792;BME280;51226;47.504;19.074;2023-04-02T12:53:39;99438.59;;;25.56;27.99
64792;BME280;51226;47.504;19.074;2023-04-02T12:56:43;99438.84;;;25.50;28.65
64792;BME280;51226;47.504;19.074;2023-04-02T12:59:46;99442.00;;;25.38;29.55
64792;BME280;51226;47.504;19.074;2023-04-02T13:03:06;99439.91;;;25.21;30.56
64792;BME280;51226;47.504;19.074;2023-04-02T13:06:20;99435.47;;;25.45;29.07
64792;BME280;51226;47.504;19.074;2023-04-02T13:09:34;99432.19;;;25.60;28.71
64792;BME280;51226;47.504;19.074;2023-04-02T13:12:39;99445.69;;;25.33;28.70
64792;BME280;51226;47.504;19.074;2023-04-02T13:15:42;99442.31;;;25.28;28.06
64792;BME280;51226;47.504;19.074;2023-04-02T13:18:47;99438.44;;;25.37;28.41
64792;BME280;51226;47.504;19.074;2023-04-02T13:21:51;99449.91;;;25.39;28.40
64792;BME280;51226;47.504;19.074;2023-04-02T13:24:54;99442.97;;;24.86;29.00
64792;BME280;51226;47.504;19.074;2023-04-02T13:27:57;99443.56;;;24.16;29.73
64792;BME280;51226;47.504;19.074;2023-04-02T13:31:00;99445.84;;;24.00;29.39
64792;BME280;51226;47.504;19.074;2023-04-02T13:34:03;99447.81;;;23.35;30.86
64792;BME280;51226;47.504;19.074;2023-04-02T13:37:10;99450.34;;;22.75;32.26
64792;BME280;51226;47.504;19.074;2023-04-02T13:40:15;99446.19;;;22.65;32.21
64792;BME280;51226;47.504;19.074;2023-04-02T13:43:21;99452.31;;;22.69;32.44
64792;BME280;51226;47.504;19.074;2023-04-02T13:46:29;99444.94;;;22.79;32.20
64792;BME280;51226;47.504;19.074;2023-04-02T13:49:32;99453.34;;;22.96;32.03
64792;BME280;51226;47.504;19.074;2023-04-02T13:52:35;99446.00;;;23.04;31.55
64792;BME280;51226;47.504;19.074;2023-04-02T13:55:40;99451.84;;;22.86;32.31
64792;BME280;51226;47.504;19.074;2023-04-02T13:58:46;99461.75;;;22.81;30.90
64792;BME280;51226;47.504;19.074;2023-04-02T14:01:50;99449.84;;;22.61;31.14
64792;BME280;51226;47.504;19.074;2023-04-02T14:05:22;99445.69;;;22.51;32.60
64792;BME280;51226;47.504;19.074;2023-04-02T14:35:45;99457.34;;;21.26;33.31
64792;BME280;51226;47.504;19.074;2023-04-02T14:39:14;99464.50;;;21.23;33.25
64792;BME280;51226;47.504;19.074;2023-04-02T14:46:07;99478.50;;;20.84;35.70
64792;BME280;51226;47.504;19.074;2023-04-02T14:49:21;99490.28;;;20.68;36.79
64792;BME280;51226;47.504;19.074;2023-04-02T14:52:27;99502.69;;;20.66;36.65
64792;BME280;51226;47.504;19.074;2023-04-02T14:55:40;99512.03;;;20.34;36.32
64792;BME280;51226;47.504;19.074;2023-04-02T14:58:48;99512.78;;;19.85;37.32
64792;BME280;51226;47.504;19.074;2023-04-02T15:02:03;99515.13;;;19.38;38.48
64792;BME280;51226;47.504;19.074;2023-04-02T15:05:21;99514.69;;;18.94;39.65
64792;BME280;51226;47.504;19.074;2023-04-02T15:12:24;99541.00;;;17.95;43.23
64792;BME280;51226;47.504;19.074;2023-04-02T15:18:58;99567.66;;;17.02;48.96
64792;BME280;51226;47.504;19.074;2023-04-02T15:25:36;99584.31;;;16.30;53.35
64792;BME280;51226;47.504;19.074;2023-04-02T15:39:48;99605.75;;;15.25;58.74
64792;BME280;51226;47.504;19.074;2023-04-02T15:49:28;99614.09;;;14.71;61.10
64792;BME280;51226;47.504;19.074;2023-04-02T15:52:54;99601.69;;;14.58;60.42
64792;BME280;51226;47.504;19.074;2023-04-02T16:02:55;99596.63;;;13.89;65.15
64792;BME280;51226;47.504;19.074;2023-04-02T16:09:25;99587.97;;;13.98;63.86
64792;BME280;51226;47.504;19.074;2023-04-02T16:12:30;99594.94;;;13.96;62.66
64792;BME280;51226;47.504;19.074;2023-04-02T16:15:40;99576.47;;;13.83;64.21
64792;BME280;51226;47.504;19.074;2023-04-02T16:19:14;99586.00;;;13.77;63.71
64792;BME280;51226;47.504;19.074;2023-04-02T16:22:28;99586.81;;;13.73;65.56
64792;BME280;51226;47.504;19.074;2023-04-02T16:25:41;99593.91;;;13.81;68.55
64792;BME280;51226;47.504;19.074;2023-04-02T16:29:01;99599.38;;;14.03;65.44
64792;BME280;51226;47.504;19.074;2023-04-02T16:35:56;99611.94;;;14.33;67.96
64792;BME280;51226;47.504;19.074;2023-04-02T16:42:47;99616.66;;;14.62;66.63
64792;BME280;51226;47.504;19.074;2023-04-02T16:49:03;99632.44;;;14.68;65.17
64792;BME280;51226;47.504;19.074;2023-04-02T16:52:36;99637.69;;;14.65;65.20
64792;BME280;51226;47.504;19.074;2023-04-02T16:56:16;99647.28;;;14.66;66.53
64792;BME280;51226;47.504;19.074;2023-04-02T17:03:23;99641.19;;;14.67;66.49
64792;BME280;51226;47.504;19.074;2023-04-02T17:09:51;99650.50;;;14.39;65.78
64792;BME280;51226;47.504;19.074;2023-04-02T17:13:10;99661.00;;;14.39;61.78
64792;BME280;51226;47.504;19.074;2023-04-02T17:16:27;99678.22;;;14.15;61.88
64792;BME280;51226;47.504;19.074;2023-04-02T17:19:32;99672.75;;;14.00;61.11
64792;BME280;51226;47.504;19.074;2023-04-02T17:22:35;99677.88;;;13.89;60.43
64792;BME280;51226;47.504;19.074;2023-04-02T17:25:45;99677.91;;;13.90;59.73
64792;BME280;51226;47.504;19.074;2023-04-02T17:28:50;99677.81;;;13.84;59.02
64792;BME280;51226;47.504;19.074;2023-04-02T17:31:57;99681.91;;;13.64;59.99
64792;BME280;51226;47.504;19.074;2023-04-02T17:48:59;99706.66;;;13.28;56.79
64792;BME280;51226;47.504;19.074;2023-04-02T17:52:17;99706.38;;;13.11;56.51
64792;BME280;51226;47.504;19.074;2023-04-02T18:09:34;99738.12;;;12.81;56.20
64792;BME280;51226;47.504;19.074;2023-04-02T18:19:10;99752.47;;;12.54;54.82
64792;BME280;51226;47.504;19.074;2023-04-02T18:22:54;99760.88;;;12.39;55.25
64792;BME280;51226;47.504;19.074;2023-04-02T18:29:06;99777.50;;;12.42;54.86
64792;BME280;51226;47.504;19.074;2023-04-02T18:36:23;99790.44;;;12.35;52.51
64792;BME280;51226;47.504;19.074;2023-04-02T18:45:55;99816.63;;;11.97;52.39
64792;BME280;51226;47.504;19.074;2023-04-02T18:52:22;99818.59;;;11.72;54.06
64792;BME280;51226;47.504;19.074;2023-04-02T18:55:29;99827.41;;;11.76;53.13
64792;BME280;51226;47.504;19.074;2023-04-02T19:01:52;99830.72;;;11.68;53.08
64792;BME280;51226;47.504;19.074;2023-04-02T19:05:19;99828.47;;;11.49;53.75
64792;BME280;51226;47.504;19.074;2023-04-02T19:08:48;99832.87;;;11.50;53.39
64792;BME280;51226;47.504;19.074;2023-04-02T19:11:52;99833.31;;;11.34;54.28
64792;BME280;51226;47.504;19.074;2023-04-02T19:14:57;99839.63;;;11.42;53.07
64792;BME280;51226;47.504;19.074;2023-04-02T19:28:12;99857.66;;;11.32;53.09
64792;BME280;51226;47.504;19.074;2023-04-02T19:31:49;99865.03;;;11.16;53.86
64792;BME280;51226;47.504;19.074;2023-04-02T19:35:22;99870.25;;;11.16;53.69
64792;BME280;51226;47.504;19.074;2023-04-02T19:38:57;99883.62;;;11.26;52.88
64792;BME280;51226;47.504;19.074;2023-04-02T19:48:31;99898.53;;;11.00;53.63
64792;BME280;51226;47.504;19.074;2023-04-02T19:51:37;99906.56;;;11.06;53.47
64792;BME280;51226;47.504;19.074;2023-04-02T19:54:40;99901.06;;;10.97;53.43
64792;BME280;51226;47.504;19.074;2023-04-02T19:57:43;99900.13;;;10.95;53.81
64792;BME280;51226;47.504;19.074;2023-04-02T20:00:46;99919.13;;;10.89;53.75
64792;BME280;51226;47.504;19.074;2023-04-02T20:03:49;99915.66;;;10.90;53.64
64792;BME280;51226;47.504;19.074;2023-04-02T20:06:52;99921.50;;;10.82;53.66
64792;BME280;51226;47.504;19.074;2023-04-02T20:09:55;99925.06;;;10.85;53.59
64792;BME280;51226;47.504;19.074;2023-04-02T20:12:58;99921.06;;;10.97;53.08
64792;BME280;51226;47.504;19.074;2023-04-02T20:16:03;99938.13;;;10.85;53.68
64792;BME280;51226;47.504;19.074;2023-04-02T20:19:06;99937.00;;;10.77;54.22
64792;BME280;51226;47.504;19.074;2023-04-02T20:22:09;99946.72;;;10.81;53.78
64792;BME280;51226;47.504;19.074;2023-04-02T20:25:12;99943.19;;;10.81;53.49
64792;BME280;51226;47.504;19.074;2023-04-02T20:28:15;99938.78;;;10.78;53.53
64792;BME280;51226;47.504;19.074;2023-04-02T20:31:18;99952.75;;;10.80;53.43
64792;BME280;51226;47.504;19.074;2023-04-02T20:34:21;99955.44;;;10.83;53.93
64792;BME280;51226;47.504;19.074;2023-04-02T20:37:24;99957.97;;;10.80;54.28
64792;BME280;51226;47.504;19.074;2023-04-02T20:40:27;99962.66;;;10.92;53.65
64792;BME280;51226;47.504;19.074;2023-04-02T20:43:30;99962.63;;;10.90;53.67
64792;BME280;51226;47.504;19.074;2023-04-02T20:46:33;99972.03;;;10.85;53.52
64792;BME280;51226;47.504;19.074;2023-04-02T20:49:36;99977.97;;;10.80;53.78
64792;BME280;51226;47.504;19.074;2023-04-02T20:52:39;99976.41;;;10.86;53.42
64792;BME280;51226;47.504;19.074;2023-04-02T20:55:42;99987.38;;;10.74;53.51
64792;BME280;51226;47.504;19.074;2023-04-02T20:58:47;99998.69;;;10.75;53.50
64792;BME280;51226;47.504;19.074;2023-04-02T21:01:50;100005.28;;;10.64;53.98
64792;BME280;51226;47.504;19.074;2023-04-02T21:04:53;100015.66;;;10.62;54.19
64792;BME280;51226;47.504;19.074;2023-04-02T21:07:56;100016.47;;;10.60;54.12
64792;BME280;51226;47.504;19.074;2023-04-02T21:11:01;100013.84;;;10.60;54.37
64792;BME280;51226;47.504;19.074;2023-04-02T21:14:04;100018.16;;;10.59;54.56
64792;BME280;51226;47.504;19.074;2023-04-02T21:17:07;100028.91;;;10.68;54.57